Terminal Aerodrome Forecast
Issued by NWS

Home | Current Version | Previous Version | Text Only | Print | Product List | Glossary Off
Versions: 1 2 3 4 5 6 7 8 9 10 11 12 13 14 15 16 17 18 19

299
FTUS43 KICT 290520
TAFCNU
TAF
KCNU 290520Z 2906/3006 03007KT P6SM OVC150
     FM291100 06013KT P6SM SCT015 OVC080
     FM291400 08017KT P6SM SCT015 OVC050
     FM292000 12022G26KT P6SM OVC040=

USA.gov is the U.S. government's official web portal to all federal, state and local government web resources and services.